sensor_id;sensor_type;location;lat;lon;timestamp;temperature;humidity
34135;DHT22;20410;55.578;12.968;2023-05-29T00:01:07;12.90;1.00
34135;DHT22;20410;55.578;12.968;2023-05-29T00:03:34;12.70;1.00
34135;DHT22;20410;55.578;12.968;2023-05-29T00:06:02;12.70;1.00
34135;DHT22;20410;55.578;12.968;2023-05-29T00:08:27;12.70;1.00
34135;DHT22;20410;55.578;12.968;2023-05-29T00:10:53;12.70;1.00
34135;DHT22;20410;55.578;12.968;2023-05-29T00:13:19;12.60;1.00
34135;DHT22;20410;55.578;12.968;2023-05-29T00:15:46;12.60;1.00
34135;DHT22;20410;55.578;12.968;2023-05-29T00:18:12;12.60;1.00
34135;DHT22;20410;55.578;12.968;2023-05-29T00:20:38;12.50;1.00
34135;DHT22;20410;55.578;12.968;2023-05-29T00:23:03;12.40;1.00
34135;DHT22;20410;55.578;12.968;2023-05-29T00:25:31;12.40;1.00
34135;DHT22;20410;55.578;12.968;2023-05-29T00:27:57;12.40;1.00
34135;DHT22;20410;55.578;12.968;2023-05-29T00:30:22;12.40;1.00
34135;DHT22;20410;55.578;12.968;2023-05-29T00:32:48;12.40;1.00
34135;DHT22;20410;55.578;12.968;2023-05-29T00:35:14;12.30;1.00
34135;DHT22;20410;55.578;12.968;2023-05-29T00:37:39;12.30;1.00
34135;DHT22;20410;55.578;12.968;2023-05-29T00:40:05;12.30;1.00
34135;DHT22;20410;55.578;12.968;2023-05-29T00:42:31;12.30;1.00
34135;DHT22;20410;55.578;12.968;2023-05-29T00:44:57;12.30;1.00
34135;DHT22;20410;55.578;12.968;2023-05-29T00:47:23;12.30;1.00
34135;DHT22;20410;55.578;12.968;2023-05-29T00:49:49;12.30;1.00
34135;DHT22;20410;55.578;12.968;2023-05-29T00:52:17;12.30;1.00
34135;DHT22;20410;55.578;12.968;2023-05-29T00:54:44;12.30;1.00
34135;DHT22;20410;55.578;12.968;2023-05-29T00:57:12;12.30;1.00
34135;DHT22;20410;55.578;12.968;2023-05-29T00:59:39;12.30;1.00
34135;DHT22;20410;55.578;12.968;2023-05-29T01:02:06;12.30;1.00
34135;DHT22;20410;55.578;12.968;2023-05-29T01:04:32;12.30;1.00
34135;DHT22;20410;55.578;12.968;2023-05-29T01:07:03;12.30;1.00
34135;DHT22;20410;55.578;12.968;2023-05-29T01:09:29;12.30;1.00
34135;DHT22;20410;55.578;12.968;2023-05-29T01:27:01;12.10;1.00
34135;DHT22;20410;55.578;12.968;2023-05-29T01:29:30;12.00;1.00
34135;DHT22;20410;55.578;12.968;2023-05-29T01:31:57;12.00;1.00
34135;DHT22;20410;55.578;12.968;2023-05-29T01:34:23;12.00;1.00
34135;DHT22;20410;55.578;12.968;2023-05-29T01:36:49;11.90;1.00
34135;DHT22;20410;55.578;12.968;2023-05-29T01:39:15;11.90;1.00
34135;DHT22;20410;55.578;12.968;2023-05-29T01:41:43;11.90;1.00
34135;DHT22;20410;55.578;12.968;2023-05-29T01:44:09;11.80;1.00
34135;DHT22;20410;55.578;12.968;2023-05-29T01:46:40;11.80;1.00
34135;DHT22;20410;55.578;12.968;2023-05-29T01:49:07;11.70;1.00
34135;DHT22;20410;55.578;12.968;2023-05-29T01:51:33;11.70;1.00
34135;DHT22;20410;55.578;12.968;2023-05-29T01:53:59;11.70;1.00
34135;DHT22;20410;55.578;12.968;2023-05-29T01:56:26;11.60;1.00
34135;DHT22;20410;55.578;12.968;2023-05-29T01:58:56;11.50;1.00
34135;DHT22;20410;55.578;12.968;2023-05-29T02:01:23;11.50;1.00
34135;DHT22;20410;55.578;12.968;2023-05-29T02:03:49;11.40;1.00
34135;DHT22;20410;55.578;12.968;2023-05-29T02:06:15;11.50;1.00
34135;DHT22;20410;55.578;12.968;2023-05-29T02:08:40;11.40;1.00
34135;DHT22;20410;55.578;12.968;2023-05-29T02:11:06;11.30;1.00
34135;DHT22;20410;55.578;12.968;2023-05-29T02:13:32;11.30;1.00
34135;DHT22;20410;55.578;12.968;2023-05-29T02:15:57;11.30;1.00
34135;DHT22;20410;55.578;12.968;2023-05-29T02:18:23;11.30;1.00
34135;DHT22;20410;55.578;12.968;2023-05-29T02:20:49;11.30;1.00
34135;DHT22;20410;55.578;12.968;2023-05-29T02:23:15;11.40;1.00
34135;DHT22;20410;55.578;12.968;2023-05-29T02:25:41;11.40;1.00
34135;DHT22;20410;55.578;12.968;2023-05-29T02:28:07;11.40;1.00
34135;DHT22;20410;55.578;12.968;2023-05-29T02:30:34;11.30;1.00
34135;DHT22;20410;55.578;12.968;2023-05-29T02:33:00;11.30;1.00
34135;DHT22;20410;55.578;12.968;2023-05-29T02:35:26;11.30;1.00
34135;DHT22;20410;55.578;12.968;2023-05-29T02:37:52;11.40;1.00
34135;DHT22;20410;55.578;12.968;2023-05-29T02:40:19;11.30;1.00
34135;DHT22;20410;55.578;12.968;2023-05-29T02:42:45;11.40;1.00
34135;DHT22;20410;55.578;12.968;2023-05-29T02:45:11;11.40;1.00
34135;DHT22;20410;55.578;12.968;2023-05-29T02:47:38;11.40;1.00
34135;DHT22;20410;55.578;12.968;2023-05-29T02:50:05;11.40;1.00
34135;DHT22;20410;55.578;12.968;2023-05-29T02:52:32;11.50;1.00
34135;DHT22;20410;55.578;12.968;2023-05-29T02:54:57;11.40;1.00
34135;DHT22;20410;55.578;12.968;2023-05-29T02:57:24;11.40;1.00
34135;DHT22;20410;55.578;12.968;2023-05-29T02:59:50;11.30;1.00
34135;DHT22;20410;55.578;12.968;2023-05-29T03:02:17;11.30;1.00
34135;DHT22;20410;55.578;12.968;2023-05-29T03:04:43;11.30;1.00
34135;DHT22;20410;55.578;12.968;2023-05-29T03:07:09;11.30;1.00
34135;DHT22;20410;55.578;12.968;2023-05-29T03:09:35;11.30;1.00
34135;DHT22;20410;55.578;12.968;2023-05-29T03:12:01;11.30;1.00
34135;DHT22;20410;55.578;12.968;2023-05-29T03:14:27;11.20;1.00
34135;DHT22;20410;55.578;12.968;2023-05-29T03:16:53;11.20;1.00
34135;DHT22;20410;55.578;12.968;2023-05-29T03:19:19;11.30;1.00
34135;DHT22;20410;55.578;12.968;2023-05-29T03:21:44;11.20;1.00
34135;DHT22;20410;55.578;12.968;2023-05-29T03:24:10;11.20;1.00
34135;DHT22;20410;55.578;12.968;2023-05-29T03:26:36;11.20;1.00
34135;DHT22;20410;55.578;12.968;2023-05-29T03:29:02;11.30;1.00
34135;DHT22;20410;55.578;12.968;2023-05-29T03:31:28;11.30;1.00
34135;DHT22;20410;55.578;12.968;2023-05-29T03:33:53;11.40;1.00
34135;DHT22;20410;55.578;12.968;2023-05-29T03:36:19;11.50;1.00
34135;DHT22;20410;55.578;12.968;2023-05-29T03:38:45;11.50;1.00
34135;DHT22;20410;55.578;12.968;2023-05-29T03:41:10;11.50;1.00
34135;DHT22;20410;55.578;12.968;2023-05-29T03:43:36;11.50;1.00
34135;DHT22;20410;55.578;12.968;2023-05-29T03:46:02;11.50;1.00
34135;DHT22;20410;55.578;12.968;2023-05-29T03:48:28;11.60;1.00
34135;DHT22;20410;55.578;12.968;2023-05-29T03:50:53;11.60;1.00
34135;DHT22;20410;55.578;12.968;2023-05-29T03:53:19;11.70;1.00
34135;DHT22;20410;55.578;12.968;2023-05-29T03:55:44;11.70;1.00
34135;DHT22;20410;55.578;12.968;2023-05-29T03:58:10;11.80;1.00
34135;DHT22;20410;55.578;12.968;2023-05-29T04:00:38;11.90;1.00
34135;DHT22;20410;55.578;12.968;2023-05-29T04:03:04;12.00;1.00
34135;DHT22;20410;55.578;12.968;2023-05-29T04:05:30;12.00;1.00
34135;DHT22;20410;55.578;12.968;2023-05-29T04:07:56;12.10;1.00
34135;DHT22;20410;55.578;12.968;2023-05-29T04:10:22;12.10;1.00
34135;DHT22;20410;55.578;12.968;2023-05-29T04:12:49;12.10;1.00
34135;DHT22;20410;55.578;12.968;2023-05-29T04:15:14;12.10;1.00
34135;DHT22;20410;55.578;12.968;2023-05-29T04:17:40;12.10;1.00
34135;DHT22;20410;55.578;12.968;2023-05-29T04:20:06;12.10;1.00
34135;DHT22;20410;55.578;12.968;2023-05-29T04:22:37;12.20;1.00
34135;DHT22;20410;55.578;12.968;2023-05-29T04:25:06;12.30;1.00
34135;DHT22;20410;55.578;12.968;2023-05-29T04:27:32;12.30;1.00
34135;DHT22;20410;55.578;12.968;2023-05-29T04:30:04;12.30;1.00
34135;DHT22;20410;55.578;12.968;2023-05-29T04:32:30;12.30;1.00
34135;DHT22;20410;55.578;12.968;2023-05-29T04:34:56;12.30;1.00
34135;DHT22;20410;55.578;12.968;2023-05-29T04:37:21;12.40;1.00
34135;DHT22;20410;55.578;12.968;2023-05-29T04:39:54;12.40;1.00
34135;DHT22;20410;55.578;12.968;2023-05-29T04:42:20;12.50;1.00
34135;DHT22;20410;55.578;12.968;2023-05-29T04:44:46;12.50;1.00
34135;DHT22;20410;55.578;12.968;2023-05-29T04:47:12;12.50;1.00
34135;DHT22;20410;55.578;12.968;2023-05-29T04:49:39;12.50;1.00
34135;DHT22;20410;55.578;12.968;2023-05-29T04:52:05;12.60;1.00
34135;DHT22;20410;55.578;12.968;2023-05-29T04:54:31;12.60;1.00
34135;DHT22;20410;55.578;12.968;2023-05-29T04:56:56;12.70;1.00
34135;DHT22;20410;55.578;12.968;2023-05-29T04:59:22;12.80;1.00
34135;DHT22;20410;55.578;12.968;2023-05-29T05:01:48;12.80;1.00
34135;DHT22;20410;55.578;12.968;2023-05-29T05:04:14;12.80;1.00
34135;DHT22;20410;55.578;12.968;2023-05-29T05:06:39;12.80;1.00
34135;DHT22;20410;55.578;12.968;2023-05-29T05:09:05;12.80;1.00
34135;DHT22;20410;55.578;12.968;2023-05-29T05:11:31;12.90;1.00
34135;DHT22;20410;55.578;12.968;2023-05-29T05:13:56;13.00;1.00
34135;DHT22;20410;55.578;12.968;2023-05-29T05:16:22;13.00;1.00
34135;DHT22;20410;55.578;12.968;2023-05-29T05:18:47;13.10;1.00
34135;DHT22;20410;55.578;12.968;2023-05-29T05:21:13;13.10;1.00
34135;DHT22;20410;55.578;12.968;2023-05-29T05:23:40;13.10;1.00
34135;DHT22;20410;55.578;12.968;2023-05-29T05:26:05;13.10;1.00
34135;DHT22;20410;55.578;12.968;2023-05-29T05:28:31;13.10;1.00
34135;DHT22;20410;55.578;12.968;2023-05-29T05:30:56;13.20;1.00
34135;DHT22;20410;55.578;12.968;2023-05-29T05:33:22;13.30;1.00
34135;DHT22;20410;55.578;12.968;2023-05-29T05:35:48;13.30;1.00
34135;DHT22;20410;55.578;12.968;2023-05-29T05:38:13;13.30;1.00
34135;DHT22;20410;55.578;12.968;2023-05-29T05:40:39;13.30;1.00
34135;DHT22;20410;55.578;12.968;2023-05-29T05:43:04;13.40;1.00
34135;DHT22;20410;55.578;12.968;2023-05-29T05:45:31;13.30;1.00
34135;DHT22;20410;55.578;12.968;2023-05-29T05:47:57;13.30;1.00
34135;DHT22;20410;55.578;12.968;2023-05-29T05:50:22;13.40;1.00
34135;DHT22;20410;55.578;12.968;2023-05-29T05:52:48;13.50;1.00
34135;DHT22;20410;55.578;12.968;2023-05-29T05:55:13;13.50;1.00
34135;DHT22;20410;55.578;12.968;2023-05-29T05:57:39;13.60;1.00
34135;DHT22;20410;55.578;12.968;2023-05-29T06:00:05;13.70;1.00
34135;DHT22;20410;55.578;12.968;2023-05-29T06:02:37;13.70;1.00
34135;DHT22;20410;55.578;12.968;2023-05-29T06:05:04;13.70;1.00
34135;DHT22;20410;55.578;12.968;2023-05-29T06:07:29;13.70;1.00
34135;DHT22;20410;55.578;12.968;2023-05-29T06:09:55;13.70;1.00
34135;DHT22;20410;55.578;12.968;2023-05-29T06:12:21;13.70;1.00
34135;DHT22;20410;55.578;12.968;2023-05-29T06:14:46;13.70;1.00
34135;DHT22;20410;55.578;12.968;2023-05-29T06:17:12;13.90;1.00
34135;DHT22;20410;55.578;12.968;2023-05-29T06:19:38;14.00;1.00
34135;DHT22;20410;55.578;12.968;2023-05-29T06:22:04;14.10;1.00
34135;DHT22;20410;55.578;12.968;2023-05-29T06:24:29;14.20;1.00
34135;DHT22;20410;55.578;12.968;2023-05-29T06:26:55;14.20;1.00
34135;DHT22;20410;55.578;12.968;2023-05-29T06:29:21;14.30;1.00
34135;DHT22;20410;55.578;12.968;2023-05-29T06:31:46;14.20;1.00
34135;DHT22;20410;55.578;12.968;2023-05-29T06:34:12;14.00;1.00
34135;DHT22;20410;55.578;12.968;2023-05-29T06:36:37;14.10;1.00
34135;DHT22;20410;55.578;12.968;2023-05-29T06:39:04;14.10;1.00
34135;DHT22;20410;55.578;12.968;2023-05-29T06:41:29;14.10;1.00
34135;DHT22;20410;55.578;12.968;2023-05-29T06:43:55;14.20;1.00
34135;DHT22;20410;55.578;12.968;2023-05-29T06:46:21;14.30;1.00
34135;DHT22;20410;55.578;12.968;2023-05-29T06:48:46;14.40;1.00
34135;DHT22;20410;55.578;12.968;2023-05-29T06:51:12;14.50;1.00
34135;DHT22;20410;55.578;12.968;2023-05-29T06:53:38;14.70;1.00
34135;DHT22;20410;55.578;12.968;2023-05-29T06:56:05;14.80;1.00
34135;DHT22;20410;55.578;12.968;2023-05-29T06:58:31;14.90;1.00
34135;DHT22;20410;55.578;12.968;2023-05-29T07:00:57;14.90;1.00
34135;DHT22;20410;55.578;12.968;2023-05-29T07:03:25;14.70;1.00
34135;DHT22;20410;55.578;12.968;2023-05-29T07:05:50;14.80;1.00
34135;DHT22;20410;55.578;12.968;2023-05-29T07:08:16;14.80;1.00
34135;DHT22;20410;55.578;12.968;2023-05-29T07:10:41;14.70;1.00
34135;DHT22;20410;55.578;12.968;2023-05-29T07:13:07;14.90;1.00
34135;DHT22;20410;55.578;12.968;2023-05-29T07:15:33;14.80;1.00
34135;DHT22;20410;55.578;12.968;2023-05-29T07:17:59;14.70;1.00
34135;DHT22;20410;55.578;12.968;2023-05-29T07:20:24;14.60;1.00
34135;DHT22;20410;55.578;12.968;2023-05-29T07:22:50;14.50;1.00
34135;DHT22;20410;55.578;12.968;2023-05-29T07:25:16;14.60;1.00
34135;DHT22;20410;55.578;12.968;2023-05-29T07:27:41;14.90;1.00
34135;DHT22;20410;55.578;12.968;2023-05-29T07:30:07;15.00;1.00
34135;DHT22;20410;55.578;12.968;2023-05-29T07:32:33;14.90;1.00
34135;DHT22;20410;55.578;12.968;2023-05-29T07:34:59;14.90;1.00
34135;DHT22;20410;55.578;12.968;2023-05-29T07:37:24;14.90;1.00
34135;DHT22;20410;55.578;12.968;2023-05-29T07:39:50;15.00;1.00
34135;DHT22;20410;55.578;12.968;2023-05-29T07:42:15;15.00;1.00
34135;DHT22;20410;55.578;12.968;2023-05-29T07:44:42;14.90;1.00
34135;DHT22;20410;55.578;12.968;2023-05-29T07:47:09;14.90;1.00
34135;DHT22;20410;55.578;12.968;2023-05-29T07:49:35;14.90;1.00
34135;DHT22;20410;55.578;12.968;2023-05-29T07:52:03;15.00;1.00
34135;DHT22;20410;55.578;12.968;2023-05-29T07:54:30;15.30;1.00
34135;DHT22;20410;55.578;12.968;2023-05-29T07:56:58;15.40;1.00
34135;DHT22;20410;55.578;12.968;2023-05-29T07:59:24;15.60;1.00
34135;DHT22;20410;55.578;12.968;2023-05-29T08:01:49;15.60;1.00
34135;DHT22;20410;55.578;12.968;2023-05-29T08:04:15;15.60;1.00
34135;DHT22;20410;55.578;12.968;2023-05-29T08:06:41;15.70;1.00
34135;DHT22;20410;55.578;12.968;2023-05-29T08:09:08;15.80;1.00
34135;DHT22;20410;55.578;12.968;2023-05-29T08:11:33;15.70;1.00
34135;DHT22;20410;55.578;12.968;2023-05-29T08:13:59;15.70;1.00
34135;DHT22;20410;55.578;12.968;2023-05-29T08:16:25;15.90;1.00
34135;DHT22;20410;55.578;12.968;2023-05-29T08:18:52;16.00;1.00
34135;DHT22;20410;55.578;12.968;2023-05-29T08:21:18;15.90;1.00
34135;DHT22;20410;55.578;12.968;2023-05-29T08:23:43;16.10;1.00
34135;DHT22;20410;55.578;12.968;2023-05-29T08:26:09;16.20;1.00
34135;DHT22;20410;55.578;12.968;2023-05-29T08:28:35;16.30;1.00
34135;DHT22;20410;55.578;12.968;2023-05-29T08:31:01;16.40;1.00
34135;DHT22;20410;55.578;12.968;2023-05-29T08:33:27;16.50;1.00
34135;DHT22;20410;55.578;12.968;2023-05-29T08:35:52;16.60;1.00
34135;DHT22;20410;55.578;12.968;2023-05-29T08:38:18;16.60;1.00
34135;DHT22;20410;55.578;12.968;2023-05-29T08:40:43;16.60;1.00
34135;DHT22;20410;55.578;12.968;2023-05-29T08:43:16;16.60;1.00
34135;DHT22;20410;55.578;12.968;2023-05-29T08:45:44;16.70;1.00
34135;DHT22;20410;55.578;12.968;2023-05-29T08:48:11;16.80;1.00
34135;DHT22;20410;55.578;12.968;2023-05-29T08:50:43;16.90;1.00
34135;DHT22;20410;55.578;12.968;2023-05-29T08:53:15;17.20;1.00
34135;DHT22;20410;55.578;12.968;2023-05-29T08:55:41;17.40;1.00
34135;DHT22;20410;55.578;12.968;2023-05-29T08:58:08;17.30;1.00
34135;DHT22;20410;55.578;12.968;2023-05-29T09:00:35;17.40;1.00
34135;DHT22;20410;55.578;12.968;2023-05-29T09:03:02;17.50;1.00
34135;DHT22;20410;55.578;12.968;2023-05-29T09:05:28;17.50;1.00
34135;DHT22;20410;55.578;12.968;2023-05-29T09:07:55;17.10;1.00
34135;DHT22;20410;55.578;12.968;2023-05-29T09:10:21;16.80;1.00
34135;DHT22;20410;55.578;12.968;2023-05-29T09:12:53;16.90;1.00
34135;DHT22;20410;55.578;12.968;2023-05-29T09:15:21;17.00;1.00
34135;DHT22;20410;55.578;12.968;2023-05-29T09:17:51;17.30;1.00
34135;DHT22;20410;55.578;12.968;2023-05-29T09:20:18;17.40;1.00
34135;DHT22;20410;55.578;12.968;2023-05-29T09:22:58;17.40;1.00
34135;DHT22;20410;55.578;12.968;2023-05-29T09:25:28;17.50;1.00
34135;DHT22;20410;55.578;12.968;2023-05-29T09:28:02;17.40;1.00
34135;DHT22;20410;55.578;12.968;2023-05-29T09:33:01;17.40;1.00
34135;DHT22;20410;55.578;12.968;2023-05-29T09:35:33;17.30;1.00
34135;DHT22;20410;55.578;12.968;2023-05-29T09:37:59;17.20;1.00
34135;DHT22;20410;55.578;12.968;2023-05-29T09:40:25;17.20;1.00
34135;DHT22;20410;55.578;12.968;2023-05-29T09:42:50;17.10;1.00
34135;DHT22;20410;55.578;12.968;2023-05-29T09:45:20;17.30;1.00
34135;DHT22;20410;55.578;12.968;2023-05-29T09:47:47;17.40;1.00
34135;DHT22;20410;55.578;12.968;2023-05-29T09:50:19;17.40;1.00
34135;DHT22;20410;55.578;12.968;2023-05-29T09:52:48;17.40;1.00
34135;DHT22;20410;55.578;12.968;2023-05-29T09:55:19;17.40;1.00
34135;DHT22;20410;55.578;12.968;2023-05-29T09:57:47;17.30;1.00
34135;DHT22;20410;55.578;12.968;2023-05-29T10:00:17;17.30;1.00
34135;DHT22;20410;55.578;12.968;2023-05-29T10:02:43;17.30;1.00
34135;DHT22;20410;55.578;12.968;2023-05-29T10:05:09;17.30;1.00
34135;DHT22;20410;55.578;12.968;2023-05-29T10:07:37;17.30;1.00
34135;DHT22;20410;55.578;12.968;2023-05-29T10:10:08;17.40;1.00
34135;DHT22;20410;55.578;12.968;2023-05-29T10:12:38;17.30;1.00
34135;DHT22;20410;55.578;12.968;2023-05-29T10:15:10;17.10;1.00
34135;DHT22;20410;55.578;12.968;2023-05-29T10:17:37;17.00;1.00
34135;DHT22;20410;55.578;12.968;2023-05-29T10:20:05;17.10;1.00
34135;DHT22;20410;55.578;12.968;2023-05-29T10:22:39;17.10;1.00
34135;DHT22;20410;55.578;12.968;2023-05-29T10:25:08;17.20;1.00
34135;DHT22;20410;55.578;12.968;2023-05-29T10:27:34;17.10;1.00
34135;DHT22;20410;55.578;12.968;2023-05-29T10:30:14;17.30;1.00
34135;DHT22;20410;55.578;12.968;2023-05-29T10:33:01;17.40;1.00
34135;DHT22;20410;55.578;12.968;2023-05-29T10:35:53;17.40;1.00
34135;DHT22;20410;55.578;12.968;2023-05-29T10:38:20;17.30;1.00
34135;DHT22;20410;55.578;12.968;2023-05-29T10:40:46;17.20;1.00
34135;DHT22;20410;55.578;12.968;2023-05-29T10:43:34;17.30;1.00
34135;DHT22;20410;55.578;12.968;2023-05-29T10:46:00;17.20;1.00
34135;DHT22;20410;55.578;12.968;2023-05-29T10:50:56;17.40;1.00
34135;DHT22;20410;55.578;12.968;2023-05-29T10:53:26;17.60;1.00
34135;DHT22;20410;55.578;12.968;2023-05-29T10:55:56;17.70;1.00
34135;DHT22;20410;55.578;12.968;2023-05-29T10:58:22;17.70;1.00
34135;DHT22;20410;55.578;12.968;2023-05-29T11:00:49;17.80;1.00
34135;DHT22;20410;55.578;12.968;2023-05-29T11:03:32;18.00;1.00
34135;DHT22;20410;55.578;12.968;2023-05-29T11:06:02;17.80;1.00
34135;DHT22;20410;55.578;12.968;2023-05-29T11:08:46;17.50;1.00
34135;DHT22;20410;55.578;12.968;2023-05-29T11:11:13;17.50;1.00
34135;DHT22;20410;55.578;12.968;2023-05-29T11:13:39;17.60;1.00
34135;DHT22;20410;55.578;12.968;2023-05-29T11:18:47;17.70;1.00
34135;DHT22;20410;55.578;12.968;2023-05-29T11:24:24;17.80;1.00
34135;DHT22;20410;55.578;12.968;2023-05-29T11:26:56;17.90;1.00
34135;DHT22;20410;55.578;12.968;2023-05-29T11:29:28;17.90;1.00
34135;DHT22;20410;55.578;12.968;2023-05-29T11:32:01;17.90;1.00
34135;DHT22;20410;55.578;12.968;2023-05-29T11:34:28;18.00;1.00
34135;DHT22;20410;55.578;12.968;2023-05-29T11:36:59;17.90;1.00
34135;DHT22;20410;55.578;12.968;2023-05-29T11:39:26;17.90;1.00
34135;DHT22;20410;55.578;12.968;2023-05-29T11:41:52;17.80;1.00
34135;DHT22;20410;55.578;12.968;2023-05-29T11:44:18;17.90;1.00
34135;DHT22;20410;55.578;12.968;2023-05-29T11:46:44;17.70;1.00
34135;DHT22;20410;55.578;12.968;2023-05-29T11:49:10;17.80;1.00
34135;DHT22;20410;55.578;12.968;2023-05-29T11:51:36;18.10;1.00
34135;DHT22;20410;55.578;12.968;2023-05-29T11:54:02;18.20;1.00
34135;DHT22;20410;55.578;12.968;2023-05-29T11:56:28;18.20;1.00
34135;DHT22;20410;55.578;12.968;2023-05-29T11:58:56;17.90;1.00
34135;DHT22;20410;55.578;12.968;2023-05-29T12:01:23;17.70;1.00
34135;DHT22;20410;55.578;12.968;2023-05-29T12:03:50;17.70;1.00
34135;DHT22;20410;55.578;12.968;2023-05-29T12:06:16;17.70;1.00
34135;DHT22;20410;55.578;12.968;2023-05-29T12:08:56;17.50;1.00
34135;DHT22;20410;55.578;12.968;2023-05-29T12:11:24;17.30;1.00
34135;DHT22;20410;55.578;12.968;2023-05-29T12:14:00;17.20;1.00
34135;DHT22;20410;55.578;12.968;2023-05-29T12:16:27;17.00;1.00
34135;DHT22;20410;55.578;12.968;2023-05-29T12:18:54;16.80;1.00
34135;DHT22;20410;55.578;12.968;2023-05-29T12:21:21;16.90;1.00
34135;DHT22;20410;55.578;12.968;2023-05-29T12:23:47;16.80;1.00
34135;DHT22;20410;55.578;12.968;2023-05-29T12:26:13;17.10;1.00
34135;DHT22;20410;55.578;12.968;2023-05-29T12:28:44;17.20;1.00
34135;DHT22;20410;55.578;12.968;2023-05-29T12:31:10;17.30;1.00
34135;DHT22;20410;55.578;12.968;2023-05-29T12:33:40;17.20;1.00
34135;DHT22;20410;55.578;12.968;2023-05-29T12:36:08;17.30;1.00
34135;DHT22;20410;55.578;12.968;2023-05-29T12:38:47;17.30;1.00
34135;DHT22;20410;55.578;12.968;2023-05-29T12:41:27;17.20;1.00
34135;DHT22;20410;55.578;12.968;2023-05-29T12:43:57;17.10;1.00
34135;DHT22;20410;55.578;12.968;2023-05-29T12:46:24;17.10;1.00
34135;DHT22;20410;55.578;12.968;2023-05-29T12:48:55;17.00;1.00
34135;DHT22;20410;55.578;12.968;2023-05-29T12:51:26;16.80;1.00
34135;DHT22;20410;55.578;12.968;2023-05-29T12:53:52;16.90;1.00
34135;DHT22;20410;55.578;12.968;2023-05-29T12:56:26;17.00;1.00
34135;DHT22;20410;55.578;12.968;2023-05-29T12:58:52;16.80;1.00
34135;DHT22;20410;55.578;12.968;2023-05-29T13:01:18;16.90;1.00
34135;DHT22;20410;55.578;12.968;2023-05-29T13:03:44;16.80;1.00
34135;DHT22;20410;55.578;12.968;2023-05-29T13:06:10;17.10;1.00
34135;DHT22;20410;55.578;12.968;2023-05-29T13:08:36;17.30;1.00
34135;DHT22;20410;55.578;12.968;2023-05-29T13:11:02;17.20;1.00
34135;DHT22;20410;55.578;12.968;2023-05-29T13:13:27;16.90;1.00
34135;DHT22;20410;55.578;12.968;2023-05-29T13:15:53;16.60;1.00
34135;DHT22;20410;55.578;12.968;2023-05-29T13:18:18;16.50;1.00
34135;DHT22;20410;55.578;12.968;2023-05-29T13:20:44;16.40;1.00
34135;DHT22;20410;55.578;12.968;2023-05-29T13:23:10;16.50;1.00
34135;DHT22;20410;55.578;12.968;2023-05-29T13:25:35;16.60;1.00
34135;DHT22;20410;55.578;12.968;2023-05-29T13:28:01;16.50;1.00
34135;DHT22;20410;55.578;12.968;2023-05-29T13:30:26;16.50;1.00
34135;DHT22;20410;55.578;12.968;2023-05-29T13:32:53;16.80;1.00
34135;DHT22;20410;55.578;12.968;2023-05-29T13:35:19;16.90;1.00
34135;DHT22;20410;55.578;12.968;2023-05-29T13:37:44;16.80;1.00
34135;DHT22;20410;55.578;12.968;2023-05-29T13:40:11;16.70;1.00
34135;DHT22;20410;55.578;12.968;2023-05-29T13:42:39;16.90;1.00
34135;DHT22;20410;55.578;12.968;2023-05-29T13:45:06;16.90;1.00
34135;DHT22;20410;55.578;12.968;2023-05-29T13:47:32;16.90;1.00
34135;DHT22;20410;55.578;12.968;2023-05-29T13:49:58;17.10;1.00
34135;DHT22;20410;55.578;12.968;2023-05-29T13:52:25;17.10;1.00
34135;DHT22;20410;55.578;12.968;2023-05-29T13:54:51;17.10;1.00
34135;DHT22;20410;55.578;12.968;2023-05-29T13:57:16;17.10;1.00
34135;DHT22;20410;55.578;12.968;2023-05-29T13:59:42;17.00;1.00
34135;DHT22;20410;55.578;12.968;2023-05-29T14:02:07;17.10;1.00
34135;DHT22;20410;55.578;12.968;2023-05-29T14:04:34;17.00;1.00
34135;DHT22;20410;55.578;12.968;2023-05-29T14:07:00;16.90;1.00
34135;DHT22;20410;55.578;12.968;2023-05-29T14:09:26;16.70;1.00
34135;DHT22;20410;55.578;12.968;2023-05-29T14:11:56;16.60;1.00
34135;DHT22;20410;55.578;12.968;2023-05-29T14:14:22;16.50;1.00
34135;DHT22;20410;55.578;12.968;2023-05-29T14:16:48;16.50;1.00
34135;DHT22;20410;55.578;12.968;2023-05-29T14:19:14;16.40;1.00
34135;DHT22;20410;55.578;12.968;2023-05-29T14:21:40;16.60;1.00
34135;DHT22;20410;55.578;12.968;2023-05-29T14:24:05;16.50;1.00
34135;DHT22;20410;55.578;12.968;2023-05-29T14:26:32;16.40;1.00
34135;DHT22;20410;55.578;12.968;2023-05-29T14:28:58;16.30;1.00
34135;DHT22;20410;55.578;12.968;2023-05-29T14:31:24;16.10;1.00
34135;DHT22;20410;55.578;12.968;2023-05-29T14:33:49;16.10;1.00
34135;DHT22;20410;55.578;12.968;2023-05-29T14:36:15;16.30;1.00
34135;DHT22;20410;55.578;12.968;2023-05-29T14:38:40;16.60;1.00
34135;DHT22;20410;55.578;12.968;2023-05-29T14:41:08;16.60;1.00
34135;DHT22;20410;55.578;12.968;2023-05-29T14:43:33;16.60;1.00
34135;DHT22;20410;55.578;12.968;2023-05-29T14:45:59;16.60;1.00
34135;DHT22;20410;55.578;12.968;2023-05-29T14:48:24;16.60;1.00
34135;DHT22;20410;55.578;12.968;2023-05-29T14:50:50;16.50;1.00
34135;DHT22;20410;55.578;12.968;2023-05-29T14:53:16;16.50;1.00
34135;DHT22;20410;55.578;12.968;2023-05-29T14:55:41;16.40;1.00
34135;DHT22;20410;55.578;12.968;2023-05-29T14:58:07;16.30;1.00
34135;DHT22;20410;55.578;12.968;2023-05-29T15:00:32;16.20;1.00
34135;DHT22;20410;55.578;12.968;2023-05-29T15:02:58;16.30;1.00
34135;DHT22;20410;55.578;12.968;2023-05-29T15:05:28;16.10;1.00
34135;DHT22;20410;55.578;12.968;2023-05-29T15:07:54;15.90;1.00
34135;DHT22;20410;55.578;12.968;2023-05-29T15:10:25;15.90;1.00
34135;DHT22;20410;55.578;12.968;2023-05-29T15:12:54;16.00;1.00
34135;DHT22;20410;55.578;12.968;2023-05-29T15:15:25;16.00;1.00
34135;DHT22;20410;55.578;12.968;2023-05-29T15:17:51;16.20;1.00
34135;DHT22;20410;55.578;12.968;2023-05-29T15:20:25;16.20;1.00
34135;DHT22;20410;55.578;12.968;2023-05-29T15:22:52;16.10;1.00
34135;DHT22;20410;55.578;12.968;2023-05-29T15:25:19;16.10;1.00
34135;DHT22;20410;55.578;12.968;2023-05-29T15:27:45;16.10;1.00
34135;DHT22;20410;55.578;12.968;2023-05-29T15:30:11;15.90;1.00
34135;DHT22;20410;55.578;12.968;2023-05-29T15:32:38;15.90;1.00
34135;DHT22;20410;55.578;12.968;2023-05-29T15:35:07;16.00;1.00
34135;DHT22;20410;55.578;12.968;2023-05-29T15:37:33;16.20;1.00
34135;DHT22;20410;55.578;12.968;2023-05-29T15:39:58;16.30;1.00
34135;DHT22;20410;55.578;12.968;2023-05-29T15:42:24;16.20;1.00
34135;DHT22;20410;55.578;12.968;2023-05-29T15:44:49;16.10;1.00
34135;DHT22;20410;55.578;12.968;2023-05-29T15:47:15;16.10;1.00
34135;DHT22;20410;55.578;12.968;2023-05-29T15:49:41;16.10;1.00
34135;DHT22;20410;55.578;12.968;2023-05-29T15:52:06;16.30;1.00
34135;DHT22;20410;55.578;12.968;2023-05-29T15:54:32;16.30;1.00